Time;durP1;ratioP1;P1;durP2;ratioP2;P2;SDS_P1;SDS_P2;PMS_P1;PMS_P2;Temp;Humidity;BMP_temperature;BMP_pressure;BME280_temperature;BME280_humidity;BME280_pressure;Samples;Min_cycle;Max_cycle;Signal;HPM_P1;HPM_P2
2022/04/09 00:01:17;;;;;;;1.10;1.00;;;2.00;99.90;;;;;;1960606;72;21198;-73
2022/04/09 00:03:44;;;;;;;0.60;0.60;;;1.90;99.90;;;;;;1946754;73;21485;-73
2022/04/09 00:06:11;;;;;;;0.50;0.50;;;2.00;99.90;;;;;;1946883;73;21075;-74
2022/04/09 00:08:39;;;;;;;0.80;0.60;;;1.90;99.90;;;;;;1933957;73;21128;-76
2022/04/09 00:11:06;;;;;;;1.10;1.00;;;2.00;99.90;;;;;;1962786;73;21533;-75
2022/04/09 00:13:33;;;;;;;0.68;0.68;;;2.00;99.90;;;;;;1945621;73;21451;-76
2022/04/09 00:16:01;;;;;;;0.82;0.82;;;2.10;99.90;;;;;;1940973;73;21032;-76
2022/04/09 00:18:28;;;;;;;1.02;0.50;;;2.10;99.90;;;;;;1952095;73;21063;-76
2022/04/09 00:20:55;;;;;;;0.45;0.45;;;2.20;99.90;;;;;;1954818;73;21058;-76
2022/04/09 00:23:23;;;;;;;0.20;0.20;;;2.20;99.90;;;;;;1947353;73;21133;-76
2022/04/09 00:25:51;;;;;;;1.02;0.93;;;2.20;99.90;;;;;;1961404;73;21502;-76
2022/04/09 00:28:18;;;;;;;0.53;0.53;;;2.20;99.90;;;;;;1953393;73;21090;-74
2022/04/09 00:30:45;;;;;;;0.50;0.50;;;2.20;99.90;;;;;;1925758;73;21056;-75
2022/04/09 00:33:13;;;;;;;3.75;2.30;;;2.30;99.90;;;;;;1939419;73;21071;-73
2022/04/09 00:35:40;;;;;;;2.95;1.98;;;2.30;99.90;;;;;;1953907;73;21471;-74
2022/04/09 00:38:07;;;;;;;0.50;0.50;;;2.30;99.90;;;;;;1938073;73;21071;-75
2022/04/09 00:40:35;;;;;;;0.47;0.47;;;2.20;99.90;;;;;;1956442;73;21138;-76
2022/04/09 00:43:02;;;;;;;0.60;0.60;;;2.30;99.90;;;;;;1945773;73;21153;-74
2022/04/09 00:45:29;;;;;;;0.37;0.37;;;2.30;99.90;;;;;;1954223;72;21129;-77
2022/04/09 00:47:57;;;;;;;0.45;0.45;;;2.40;99.90;;;;;;1946544;72;21044;-78
2022/04/09 00:50:24;;;;;;;0.50;0.50;;;2.40;99.90;;;;;;1961168;73;21055;-76
2022/04/09 00:52:53;;;;;;;0.50;0.50;;;2.40;99.90;;;;;;1958221;73;21170;-76
2022/04/09 00:56:13;;;;;;;0.40;0.40;;;2.40;99.90;;;;;;1947170;72;21043;-76
2022/04/09 00:57:51;;;;;;;0.42;0.42;;;2.50;99.90;;;;;;1944464;73;21055;-77
2022/04/09 01:00:18;;;;;;;0.85;0.40;;;2.50;99.90;;;;;;1963110;73;21207;-75
2022/04/09 01:02:45;;;;;;;2.30;0.60;;;2.50;99.90;;;;;;1951010;73;21129;-75
2022/04/09 01:05:13;;;;;;;0.47;0.47;;;2.50;99.90;;;;;;1938875;73;21125;-76
2022/04/09 01:07:40;;;;;;;0.70;0.70;;;2.50;99.90;;;;;;1947049;73;21098;-75
2022/04/09 01:10:11;;;;;;;0.70;0.70;;;2.50;99.90;;;;;;1943917;73;21586;-76
2022/04/09 01:12:39;;;;;;;0.80;0.60;;;2.50;99.90;;;;;;1944426;72;21066;-75
2022/04/09 01:15:06;;;;;;;0.70;0.70;;;2.50;99.90;;;;;;1950563;73;21129;-76
2022/04/09 01:17:37;;;;;;;0.50;0.50;;;2.50;99.90;;;;;;1947700;73;21135;-75
2022/04/09 01:20:19;;;;;;;0.50;0.50;;;2.50;99.90;;;;;;1934828;73;21053;-75
2022/04/09 01:22:46;;;;;;;0.62;0.62;;;2.50;99.90;;;;;;1937371;73;21192;-76
2022/04/09 01:25:13;;;;;;;0.70;0.70;;;2.50;99.90;;;;;;1939119;73;21137;-75
2022/04/09 01:27:41;;;;;;;0.60;0.60;;;2.50;99.90;;;;;;1948252;73;21455;-75
2022/04/09 01:30:09;;;;;;;0.50;0.50;;;2.50;99.90;;;;;;1953016;73;21039;-75
2022/04/09 01:32:36;;;;;;;0.55;0.55;;;2.50;99.90;;;;;;1950364;73;21459;-75
2022/04/09 01:35:04;;;;;;;0.53;0.53;;;2.60;99.90;;;;;;1955632;73;21277;-75
2022/04/09 01:37:31;;;;;;;0.60;0.60;;;2.60;99.90;;;;;;1950972;73;21212;-75
2022/04/09 01:39:59;;;;;;;0.90;0.57;;;2.60;99.90;;;;;;1948492;72;21039;-75
2022/04/09 01:42:29;;;;;;;0.78;0.70;;;2.60;99.90;;;;;;1942739;73;21048;-78
2022/04/09 01:44:56;;;;;;;0.60;0.60;;;2.60;99.90;;;;;;1953883;73;21068;-76
2022/04/09 01:47:24;;;;;;;0.80;0.80;;;2.60;99.90;;;;;;1941124;73;21503;-75
2022/04/09 01:49:51;;;;;;;0.75;0.60;;;2.60;99.90;;;;;;1943954;73;21071;-76
2022/04/09 01:52:18;;;;;;;0.95;0.70;;;2.60;99.90;;;;;;1946265;73;21433;-75
2022/04/09 01:54:46;;;;;;;1.52;0.90;;;2.60;99.90;;;;;;1954078;73;21083;-75
2022/04/09 01:57:15;;;;;;;0.73;0.73;;;2.60;99.90;;;;;;1955900;72;21069;-77
2022/04/09 01:59:44;;;;;;;1.52;0.98;;;2.70;99.90;;;;;;1957165;73;21100;-76
2022/04/09 02:02:12;;;;;;;1.12;1.02;;;2.60;99.90;;;;;;1940163;73;21071;-76
2022/04/09 02:04:41;;;;;;;1.20;1.10;;;2.70;99.90;;;;;;1952153;73;21247;-76
2022/04/09 02:07:08;;;;;;;1.20;0.93;;;2.60;99.90;;;;;;1952682;73;21532;-76
2022/04/09 02:09:35;;;;;;;0.90;0.90;;;2.70;99.90;;;;;;1955757;73;21132;-77
2022/04/09 02:12:02;;;;;;;1.05;0.90;;;2.70;99.90;;;;;;1944892;73;21075;-75
2022/04/09 02:14:30;;;;;;;0.90;0.90;;;2.70;99.90;;;;;;1950938;73;21143;-76
2022/04/09 02:16:58;;;;;;;3.43;1.60;;;2.80;99.90;;;;;;1943469;73;21137;-76
2022/04/09 02:19:25;;;;;;;1.32;1.22;;;2.70;99.90;;;;;;1909007;73;21160;-76
2022/04/09 02:21:52;;;;;;;2.45;1.35;;;2.70;99.90;;;;;;1958497;73;21023;-76
2022/04/09 02:24:21;;;;;;;1.52;1.25;;;2.70;99.90;;;;;;1959167;73;21437;-75
2022/04/09 02:26:48;;;;;;;1.52;1.32;;;2.70;99.90;;;;;;1950670;73;21075;-75
2022/04/09 02:29:15;;;;;;;1.57;1.47;;;2.70;99.90;;;;;;1953950;73;21062;-76
2022/04/09 02:31:43;;;;;;;1.97;1.70;;;2.70;99.90;;;;;;1951062;73;21136;-76
2022/04/09 02:34:10;;;;;;;3.67;2.02;;;2.80;99.90;;;;;;1953455;73;21125;-75
2022/04/09 02:36:37;;;;;;;2.45;1.87;;;2.80;99.90;;;;;;1950544;73;21432;-75
2022/04/09 02:39:05;;;;;;;2.15;1.95;;;2.80;99.90;;;;;;1950951;73;21058;-75
2022/04/09 02:41:32;;;;;;;1.82;1.67;;;2.90;99.90;;;;;;1952804;73;21127;-75
2022/04/09 02:43:59;;;;;;;4.95;1.70;;;2.90;99.90;;;;;;1960333;73;21070;-75
2022/04/09 02:46:27;;;;;;;1.70;1.57;;;3.00;99.90;;;;;;1959272;73;21036;-77
2022/04/09 02:48:54;;;;;;;2.02;1.90;;;3.00;99.90;;;;;;1962969;73;21040;-76
2022/04/09 02:51:21;;;;;;;1.77;1.45;;;2.90;99.90;;;;;;1955396;73;21507;-76
2022/04/09 02:53:48;;;;;;;6.45;1.98;;;3.00;99.90;;;;;;1946468;73;21238;-76
2022/04/09 02:56:16;;;;;;;2.08;1.80;;;2.90;99.90;;;;;;1948054;73;21125;-75
2022/04/09 02:58:43;;;;;;;2.87;2.30;;;2.90;99.90;;;;;;1949969;72;21071;-75
2022/04/09 03:01:11;;;;;;;1.65;1.55;;;2.90;99.90;;;;;;1921872;73;21195;-74
2022/04/09 03:03:38;;;;;;;2.65;2.02;;;3.00;99.90;;;;;;1903201;73;21134;-76
2022/04/09 03:06:05;;;;;;;2.67;1.85;;;3.00;99.90;;;;;;1941444;72;21439;-75
2022/04/09 03:08:33;;;;;;;3.08;2.30;;;2.90;99.90;;;;;;1941290;73;21039;-76
2022/04/09 03:11:00;;;;;;;4.87;2.27;;;2.90;99.90;;;;;;1936788;73;21058;-76
2022/04/09 03:13:27;;;;;;;2.67;2.47;;;3.00;99.90;;;;;;1955133;72;21079;-75
2022/04/09 03:15:57;;;;;;;2.37;2.08;;;3.10;99.90;;;;;;1954608;73;21180;-75
2022/04/09 03:18:24;;;;;;;2.37;2.17;;;3.10;99.90;;;;;;1950053;72;21080;-76
2022/04/09 03:20:51;;;;;;;4.85;2.10;;;3.20;99.90;;;;;;1948974;73;21131;-76
2022/04/09 03:23:18;;;;;;;2.72;2.22;;;3.20;99.90;;;;;;1945252;73;21156;-76
2022/04/09 03:25:48;;;;;;;2.65;2.45;;;3.10;99.90;;;;;;1949222;73;21537;-75
2022/04/09 03:28:15;;;;;;;1.95;1.80;;;3.20;99.90;;;;;;1954450;72;21084;-76
2022/04/09 03:30:44;;;;;;;1.77;1.65;;;3.30;99.90;;;;;;1954971;73;21059;-76
2022/04/09 03:33:11;;;;;;;1.95;1.70;;;3.30;99.90;;;;;;1951051;73;21048;-76
2022/04/09 03:35:39;;;;;;;2.17;1.90;;;3.20;99.90;;;;;;1959477;73;21136;-76
2022/04/09 03:38:06;;;;;;;1.85;1.75;;;3.20;99.90;;;;;;1935555;73;21062;-77
2022/04/09 03:40:34;;;;;;;1.82;1.72;;;3.30;99.90;;;;;;1931488;73;21059;-77
2022/04/09 03:43:01;;;;;;;1.80;1.70;;;3.30;99.90;;;;;;1961962;73;21125;-75
2022/04/09 03:45:30;;;;;;;2.20;2.00;;;3.30;99.90;;;;;;1965304;73;21539;-76
2022/04/09 03:47:58;;;;;;;3.52;2.02;;;3.30;99.90;;;;;;1947492;73;21063;-77
2022/04/09 03:50:26;;;;;;;2.10;1.90;;;3.30;99.90;;;;;;1958917;73;21055;-77
2022/04/09 03:52:53;;;;;;;1.70;1.60;;;3.30;99.90;;;;;;1964373;73;21059;-78
2022/04/09 03:55:24;;;;;;;2.08;1.98;;;3.40;99.90;;;;;;1949665;73;21063;-78
2022/04/09 03:57:51;;;;;;;2.35;2.15;;;3.30;99.90;;;;;;1954891;73;21173;-77
2022/04/09 04:00:18;;;;;;;2.12;2.02;;;3.40;99.90;;;;;;1952537;72;21458;-78
2022/04/09 04:02:45;;;;;;;2.60;2.12;;;3.40;99.90;;;;;;1961443;72;21453;-78
2022/04/09 04:05:14;;;;;;;2.50;2.30;;;3.50;99.90;;;;;;1948468;73;21117;-78
2022/04/09 04:07:45;;;;;;;2.60;2.40;;;3.40;99.90;;;;;;1963638;73;21131;-77
2022/04/09 04:10:12;;;;;;;3.65;2.80;;;3.40;99.90;;;;;;1950934;73;21126;-78
2022/04/09 04:12:40;;;;;;;3.00;2.72;;;3.30;99.90;;;;;;1962382;73;21071;-78
2022/04/09 04:15:10;;;;;;;2.67;2.47;;;3.30;99.90;;;;;;1952687;73;21046;-78
2022/04/09 04:17:42;;;;;;;3.17;2.98;;;3.50;99.90;;;;;;1951645;72;21055;-77
2022/04/09 04:20:10;;;;;;;7.33;3.75;;;3.40;99.90;;;;;;1943645;73;21137;-78
2022/04/09 04:22:37;;;;;;;5.87;4.47;;;3.50;99.90;;;;;;1957199;73;21070;-78
2022/04/09 04:25:05;;;;;;;4.53;4.10;;;3.60;99.90;;;;;;1958776;73;21110;-78
2022/04/09 04:27:33;;;;;;;5.62;4.30;;;3.60;99.90;;;;;;1962667;73;21431;-77
2022/04/09 04:30:02;;;;;;;5.67;4.10;;;3.60;99.90;;;;;;1944139;73;21549;-78
2022/04/09 04:32:29;;;;;;;5.40;4.40;;;3.50;99.90;;;;;;1957290;73;21480;-77
2022/04/09 04:34:57;;;;;;;10.38;5.55;;;3.60;99.90;;;;;;1960980;73;21036;-78
2022/04/09 04:37:24;;;;;;;7.75;5.20;;;3.60;99.90;;;;;;1954146;73;21035;-78
2022/04/09 04:39:53;;;;;;;6.72;5.97;;;3.60;99.90;;;;;;1947967;73;21467;-77
2022/04/09 04:42:21;;;;;;;6.15;5.30;;;3.70;99.90;;;;;;1940799;73;21117;-77
2022/04/09 04:44:48;;;;;;;8.13;5.72;;;3.60;99.90;;;;;;1946734;73;21063;-79
2022/04/09 04:47:16;;;;;;;10.45;6.10;;;3.60;99.90;;;;;;1942885;73;21125;-78
2022/04/09 04:49:43;;;;;;;7.87;6.35;;;3.50;99.90;;;;;;1951607;73;21036;-78
2022/04/09 04:52:12;;;;;;;9.38;6.33;;;3.40;99.90;;;;;;1954267;73;21071;-78
2022/04/09 04:54:39;;;;;;;7.97;6.65;;;3.40;99.90;;;;;;1954956;73;21145;-79
2022/04/09 04:57:06;;;;;;;11.85;7.12;;;3.50;99.90;;;;;;1946901;72;21136;-78
2022/04/09 04:59:34;;;;;;;9.35;6.70;;;3.40;99.90;;;;;;1943731;73;21071;-79
2022/04/09 05:02:01;;;;;;;11.00;6.15;;;3.50;99.90;;;;;;1953078;73;21062;-79
2022/04/09 05:04:30;;;;;;;10.65;7.40;;;3.40;99.90;;;;;;1955334;73;21067;-78
2022/04/09 05:06:57;;;;;;;9.10;7.20;;;3.30;99.90;;;;;;1942714;72;21171;-78
2022/04/09 05:09:24;;;;;;;10.98;7.03;;;3.20;99.90;;;;;;1949846;73;21125;-79
2022/04/09 05:11:52;;;;;;;11.43;7.40;;;3.30;99.90;;;;;;1955142;73;21440;-78
2022/04/09 05:14:19;;;;;;;9.45;6.72;;;3.40;99.90;;;;;;1945914;72;21152;-78
2022/04/09 05:16:46;;;;;;;9.80;6.67;;;3.40;99.90;;;;;;1952327;72;21051;-78
2022/04/09 05:19:14;;;;;;;13.15;7.22;;;3.50;99.90;;;;;;1942707;73;21047;-79
2022/04/09 05:21:42;;;;;;;9.03;6.78;;;3.60;99.90;;;;;;1955789;73;21157;-78
2022/04/09 05:24:09;;;;;;;8.00;6.40;;;3.70;99.90;;;;;;1950822;73;21079;-76
2022/04/09 05:26:37;;;;;;;9.85;6.47;;;3.70;99.90;;;;;;1958269;72;21124;-80
2022/04/09 05:29:04;;;;;;;9.75;5.62;;;3.60;99.90;;;;;;1944856;73;21059;-78
2022/04/09 05:31:31;;;;;;;8.73;5.10;;;3.70;99.90;;;;;;1959611;72;21093;-78
2022/04/09 05:33:59;;;;;;;10.70;6.47;;;3.70;99.90;;;;;;1954220;72;21076;-78
2022/04/09 05:36:26;;;;;;;15.38;5.85;;;3.70;99.90;;;;;;1950016;73;21456;-78
2022/04/09 05:38:53;;;;;;;8.10;5.37;;;3.70;99.90;;;;;;1948283;73;21198;-79
2022/04/09 05:41:22;;;;;;;9.73;6.47;;;3.70;99.90;;;;;;1959707;73;21461;-79
2022/04/09 05:43:49;;;;;;;9.13;5.75;;;3.80;99.90;;;;;;1953304;73;21060;-79
2022/04/09 05:46:19;;;;;;;8.73;5.85;;;3.80;99.90;;;;;;1925111;73;21513;-79
2022/04/09 05:48:46;;;;;;;9.23;5.45;;;3.80;99.90;;;;;;1937661;73;21181;-78
2022/04/09 05:51:15;;;;;;;12.90;5.62;;;3.90;99.90;;;;;;1942588;73;21063;-78
2022/04/09 05:53:42;;;;;;;12.13;5.35;;;3.80;99.90;;;;;;1953963;73;21063;-78
2022/04/09 05:56:09;;;;;;;7.62;5.55;;;3.80;99.90;;;;;;1946934;73;21052;-77
2022/04/09 05:58:39;;;;;;;7.47;5.20;;;3.80;99.90;;;;;;1942037;73;21118;-78
2022/04/09 06:01:09;;;;;;;7.80;5.37;;;3.90;99.90;;;;;;1945406;72;21147;-76
2022/04/09 06:03:38;;;;;;;7.95;5.83;;;4.00;99.90;;;;;;1949950;73;21498;-78
2022/04/09 06:06:07;;;;;;;10.05;5.58;;;4.20;99.90;;;;;;1951558;73;21112;-77
2022/04/09 06:08:34;;;;;;;6.87;4.92;;;4.30;99.90;;;;;;1934350;73;21145;-78
2022/04/09 06:11:06;;;;;;;14.05;4.53;;;4.50;99.90;;;;;;1956512;72;21047;-79
2022/04/09 06:13:32;;;;;;;9.73;4.50;;;4.70;99.90;;;;;;1939792;73;21048;-75
2022/04/09 06:16:05;;;;;;;6.35;3.90;;;4.70;99.90;;;;;;1947199;73;21036;-76
2022/04/09 06:18:31;;;;;;;11.83;4.10;;;4.70;99.90;;;;;;1948280;73;21435;-73
2022/04/09 06:20:58;;;;;;;6.67;4.37;;;4.70;99.90;;;;;;1948537;73;21067;-75
2022/04/09 06:23:25;;;;;;;9.83;4.67;;;4.40;99.90;;;;;;1956915;72;21195;-76
2022/04/09 06:25:52;;;;;;;12.98;5.03;;;4.50;99.90;;;;;;1947937;72;21055;-77
2022/04/09 06:28:21;;;;;;;10.40;4.95;;;4.50;99.90;;;;;;1942853;73;21408;-76
2022/04/09 06:30:50;;;;;;;10.38;4.30;;;4.50;99.90;;;;;;1962435;73;21066;-75
2022/04/09 06:33:17;;;;;;;6.80;4.80;;;4.50;99.90;;;;;;1950226;73;21128;-77
2022/04/09 06:35:46;;;;;;;7.03;4.12;;;4.50;99.90;;;;;;1952508;73;21063;-75
2022/04/09 06:38:18;;;;;;;7.83;4.15;;;4.70;99.90;;;;;;1906669;73;21545;-78
2022/04/09 06:40:47;;;;;;;8.83;4.00;;;4.70;99.90;;;;;;1950279;73;21130;-79
2022/04/09 06:43:14;;;;;;;5.47;4.05;;;4.80;99.90;;;;;;1947097;73;21224;-82
2022/04/09 06:45:41;;;;;;;9.93;4.33;;;4.70;99.90;;;;;;1948081;73;21509;-76
2022/04/09 06:48:09;;;;;;;17.42;4.22;;;4.80;99.90;;;;;;1962505;72;21059;-72
2022/04/09 06:50:36;;;;;;;7.00;3.62;;;4.90;99.90;;;;;;1944909;73;21025;-73
2022/04/09 06:53:03;;;;;;;10.75;4.22;;;4.80;99.90;;;;;;1953299;72;21067;-74
2022/04/09 06:55:30;;;;;;;6.72;4.30;;;4.80;99.90;;;;;;1954105;73;21060;-78
2022/04/09 06:58:03;;;;;;;4.87;3.70;;;4.80;99.90;;;;;;1947364;72;21456;-76
2022/04/09 07:00:32;;;;;;;7.37;4.25;;;4.90;99.90;;;;;;1946560;73;21456;-76
2022/04/09 07:03:03;;;;;;;5.67;3.30;;;4.80;99.90;;;;;;1954326;73;21080;-74
2022/04/09 07:05:29;;;;;;;;;;;4.80;99.90;;;;;;1946738;73;21047;-75
2022/04/09 07:07:57;;;;;;;6.08;3.33;;;4.50;99.90;;;;;;1952096;73;20104;-75
2022/04/09 07:10:24;;;;;;;5.35;3.52;;;4.60;99.90;;;;;;1941288;73;21054;-74
2022/04/09 07:12:51;;;;;;;5.50;3.30;;;4.60;99.90;;;;;;1932874;73;21144;-72
2022/04/09 07:15:19;;;;;;;8.70;3.72;;;4.50;99.90;;;;;;1940925;72;21075;-74
2022/04/09 07:17:46;;;;;;;5.92;3.65;;;4.70;99.90;;;;;;1949297;73;21067;-75
2022/04/09 07:20:13;;;;;;;7.28;3.90;;;4.80;99.90;;;;;;1950148;73;21040;-75
2022/04/09 07:22:41;;;;;;;7.62;3.83;;;4.80;99.90;;;;;;1952588;73;21033;-74
2022/04/09 07:25:08;;;;;;;5.20;3.80;;;4.80;99.90;;;;;;1959127;73;21059;-75
2022/04/09 07:27:38;;;;;;;6.45;4.53;;;4.70;99.90;;;;;;1951225;73;21164;-75
2022/04/09 07:30:08;;;;;;;6.78;3.70;;;4.70;99.90;;;;;;1951998;73;21087;-76
2022/04/09 07:32:35;;;;;;;7.92;3.85;;;4.90;99.90;;;;;;1944459;73;21118;-75
2022/04/09 07:35:03;;;;;;;5.37;3.55;;;5.00;99.90;;;;;;1945580;73;21124;-75
2022/04/09 07:37:30;;;;;;;7.22;3.98;;;5.10;99.90;;;;;;1950549;73;21055;-75
2022/04/09 07:39:58;;;;;;;13.75;4.40;;;5.40;99.90;;;;;;1951902;73;21097;-76
2022/04/09 07:42:26;;;;;;;6.33;3.60;;;5.60;99.90;;;;;;1920477;73;21034;-75
2022/04/09 07:44:53;;;;;;;6.00;3.65;;;5.80;99.90;;;;;;1946581;73;21460;-76
2022/04/09 07:47:20;;;;;;;8.35;3.75;;;6.00;99.90;;;;;;1955143;72;21121;-76
2022/04/09 07:49:49;;;;;;;5.40;3.15;;;5.90;99.90;;;;;;1947621;73;21063;-77
2022/04/09 07:52:16;;;;;;;5.17;3.22;;;6.20;99.90;;;;;;1949615;73;21627;-79
2022/04/09 07:54:44;;;;;;;7.22;3.67;;;6.20;99.90;;;;;;1949595;73;21142;-78
2022/04/09 07:57:11;;;;;;;8.55;4.20;;;5.90;99.90;;;;;;1947525;73;21455;-77
2022/04/09 07:59:38;;;;;;;4.25;2.80;;;6.10;99.90;;;;;;1945668;73;21137;-76
2022/04/09 08:02:06;;;;;;;9.53;3.15;;;6.40;99.90;;;;;;1948415;73;21063;-76
2022/04/09 08:04:33;;;;;;;9.35;3.65;;;6.50;99.90;;;;;;1949372;73;21068;-76
2022/04/09 08:07:00;;;;;;;14.53;3.72;;;6.60;99.90;;;;;;1951426;73;21033;-77
2022/04/09 08:09:28;;;;;;;13.08;3.65;;;6.60;99.90;;;;;;1953974;72;21063;-77
2022/04/09 08:11:55;;;;;;;11.08;3.15;;;6.70;99.90;;;;;;1946001;73;21460;-76
2022/04/09 08:14:25;;;;;;;11.80;2.95;;;6.50;99.90;;;;;;1947410;73;21184;-77
2022/04/09 08:16:52;;;;;;;7.08;2.72;;;6.60;99.90;;;;;;1951572;73;21080;-78
2022/04/09 08:19:20;;;;;;;7.92;2.90;;;6.40;99.90;;;;;;1948561;73;21077;-77
2022/04/09 08:21:53;;;;;;;6.65;2.98;;;6.30;99.90;;;;;;1951991;73;21513;-79
2022/04/09 08:24:33;;;;;;;8.18;2.62;;;6.30;99.90;;;;;;1953187;73;21165;-80
2022/04/09 08:27:01;;;;;;;4.42;2.72;;;6.30;99.90;;;;;;1936196;74;21400;-77
2022/04/09 08:29:28;;;;;;;10.93;2.67;;;6.10;99.90;;;;;;1949255;73;21165;-76
2022/04/09 08:31:56;;;;;;;12.58;3.52;;;6.10;99.90;;;;;;1947635;73;21189;-77
2022/04/09 08:34:27;;;;;;;7.60;2.90;;;6.10;99.90;;;;;;1946478;72;21071;-76
2022/04/09 08:36:54;;;;;;;8.38;3.17;;;6.10;99.90;;;;;;1952606;73;21092;-78
2022/04/09 08:39:22;;;;;;;5.10;2.67;;;6.10;99.90;;;;;;1959274;73;21133;-76
2022/04/09 08:41:49;;;;;;;8.93;3.05;;;6.00;99.90;;;;;;1949943;73;21440;-77
2022/04/09 08:44:18;;;;;;;6.20;2.50;;;5.90;99.90;;;;;;1956933;73;21095;-78
2022/04/09 08:46:48;;;;;;;6.53;2.70;;;5.90;99.90;;;;;;1956698;73;21154;-78
2022/04/09 08:49:16;;;;;;;6.12;2.52;;;5.90;99.90;;;;;;1953216;73;21584;-77
2022/04/09 08:51:43;;;;;;;5.22;2.37;;;5.90;99.90;;;;;;1917290;73;21055;-77
2022/04/09 08:54:10;;;;;;;6.55;2.58;;;6.00;99.90;;;;;;1960820;73;21525;-78
2022/04/09 08:56:38;;;;;;;5.97;2.40;;;6.00;99.90;;;;;;1948291;73;21502;-77
2022/04/09 08:59:12;;;;;;;9.43;2.33;;;6.10;99.90;;;;;;1954148;73;21153;-79
2022/04/09 09:01:39;;;;;;;6.53;2.98;;;6.20;99.90;;;;;;1949863;73;21075;-76
2022/04/09 09:04:06;;;;;;;4.12;2.27;;;6.50;99.90;;;;;;1945872;73;21188;-77
2022/04/09 09:06:40;;;;;;;6.42;2.52;;;6.50;99.90;;;;;;1940316;72;21051;-77
2022/04/09 09:09:09;;;;;;;5.97;2.45;;;6.50;99.90;;;;;;1947524;72;21161;-76
2022/04/09 09:11:46;;;;;;;6.70;2.25;;;6.40;99.90;;;;;;1951809;72;21119;-77
2022/04/09 09:14:30;;;;;;;8.83;2.02;;;6.30;99.90;;;;;;1956029;72;21098;-75
2022/04/09 09:17:01;;;;;;;5.35;2.12;;;6.10;99.90;;;;;;1944438;73;21108;-76
2022/04/09 09:19:47;;;;;;;11.35;3.00;;;6.10;99.90;;;;;;1954002;72;21068;-78
2022/04/09 09:22:19;;;;;;;11.03;2.87;;;6.40;99.90;;;;;;1958454;73;21075;-75
2022/04/09 09:25:05;;;;;;;11.05;2.72;;;6.70;99.90;;;;;;1936509;73;21169;-77
2022/04/09 09:27:48;;;;;;;6.92;2.37;;;6.90;99.90;;;;;;1950162;73;21067;-81
2022/04/09 09:30:15;;;;;;;10.18;2.55;;;7.10;99.90;;;;;;1961105;73;21165;-78
2022/04/09 09:32:44;;;;;;;8.80;2.50;;;7.70;99.90;;;;;;1948747;73;21063;-77
2022/04/09 09:35:13;;;;;;;13.08;2.22;;;8.20;99.90;;;;;;1950424;72;21059;-78
2022/04/09 09:37:40;;;;;;;4.58;1.67;;;8.70;99.90;;;;;;1947151;73;21204;-77
2022/04/09 09:40:09;;;;;;;7.58;2.05;;;8.50;99.90;;;;;;1950669;73;21064;-78
2022/04/09 09:42:36;;;;;;;8.58;2.10;;;8.40;99.90;;;;;;1951560;73;21689;-79
2022/04/09 09:45:05;;;;;;;11.15;2.10;;;8.40;99.90;;;;;;1951766;73;21097;-79
2022/04/09 09:47:32;;;;;;;13.03;2.00;;;8.70;99.90;;;;;;1942124;73;21133;-78
2022/04/09 09:49:59;;;;;;;6.20;2.00;;;8.50;99.90;;;;;;1952285;73;21149;-77
2022/04/09 09:52:36;;;;;;;11.50;2.37;;;8.00;99.90;;;;;;1948671;73;21176;-78
2022/04/09 09:55:10;;;;;;;7.17;2.00;;;8.00;99.90;;;;;;1944717;73;21083;-78
2022/04/09 09:57:34;;;;;;;8.70;1.77;;;8.10;99.90;;;;;;1952203;73;21586;-77
2022/04/09 10:00:04;;;;;;;8.90;2.17;;;8.50;99.90;;;;;;1900330;72;21484;-79
2022/04/09 10:02:33;;;;;;;10.82;1.82;;;9.30;99.90;;;;;;1952318;73;21141;-77
2022/04/09 10:05:01;;;;;;;8.78;2.02;;;9.50;99.90;;;;;;1958104;71;21075;-78
2022/04/09 10:07:29;;;;;;;19.25;2.80;;;9.30;99.90;;;;;;1957959;73;21098;-78
2022/04/09 10:09:57;;;;;;;3.65;1.80;;;8.60;99.90;;;;;;1958003;72;21113;-79
2022/04/09 10:12:27;;;;;;;7.80;1.60;;;8.30;99.90;;;;;;1957949;73;21074;-78
2022/04/09 10:14:57;;;;;;;7.60;2.33;;;8.30;99.90;;;;;;1959511;72;21068;-80
2022/04/09 10:17:28;;;;;;;6.85;1.92;;;7.70;99.90;;;;;;1959387;73;21294;-79
2022/04/09 10:20:01;;;;;;;11.10;2.17;;;8.00;99.90;;;;;;1959155;72;21574;-78
2022/04/09 10:22:31;;;;;;;11.57;1.90;;;8.50;99.90;;;;;;1962551;72;21539;-78
2022/04/09 10:24:59;;;;;;;4.25;1.70;;;8.90;99.90;;;;;;1954848;73;21088;-78
2022/04/09 10:27:39;;;;;;;7.22;2.08;;;9.30;99.90;;;;;;1958387;73;21205;-78
2022/04/09 10:30:17;;;;;;;6.25;2.22;;;9.30;99.90;;;;;;1957735;72;21112;-79
2022/04/09 10:32:53;;;;;;;7.80;2.05;;;9.50;99.90;;;;;;1962201;73;21093;-78
2022/04/09 10:35:40;;;;;;;6.03;2.17;;;8.70;99.90;;;;;;1961739;72;21104;-78
2022/04/09 10:38:18;;;;;;;3.60;1.40;;;8.50;99.90;;;;;;1954812;73;21130;-74
2022/04/09 10:40:57;;;;;;;9.43;1.62;;;8.60;99.90;;;;;;1953164;72;21067;-78
2022/04/09 10:43:28;;;;;;;9.15;1.95;;;8.60;99.90;;;;;;1960058;72;21536;-79
2022/04/09 10:46:06;;;;;;;17.32;2.85;;;8.40;99.90;;;;;;1962168;72;21116;-78
2022/04/09 10:48:39;;;;;;;6.08;1.57;;;8.40;99.90;;;;;;1961380;73;21154;-80
2022/04/09 10:51:11;;;;;;;5.40;1.85;;;8.50;99.90;;;;;;1958809;72;21120;-82
2022/04/09 10:53:42;;;;;;;3.42;1.57;;;8.30;99.90;;;;;;1953492;72;21135;-80
2022/04/09 10:56:27;;;;;;;8.78;1.80;;;8.60;99.90;;;;;;1957450;72;21060;-79
2022/04/09 10:59:13;;;;;;;4.85;1.70;;;9.10;99.90;;;;;;1962513;73;21202;-79
2022/04/09 11:01:50;;;;;;;6.05;1.70;;;9.20;99.90;;;;;;1954835;73;21184;-82
2022/04/09 11:04:34;;;;;;;6.83;1.60;;;8.40;99.90;;;;;;1960561;72;21185;-78
2022/04/09 11:07:20;;;;;;;4.47;1.55;;;9.10;99.90;;;;;;1953997;72;21060;-78
2022/04/09 11:09:56;;;;;;;3.50;1.47;;;8.90;99.90;;;;;;1954429;72;21153;-79
2022/04/09 11:12:42;;;;;;;5.92;1.40;;;9.20;99.90;;;;;;1954733;73;21190;-79
2022/04/09 11:15:16;;;;;;;14.10;1.75;;;9.10;99.90;;;;;;1956343;72;21127;-77
2022/04/09 11:17:49;;;;;;;10.28;1.60;;;9.20;99.90;;;;;;1954092;72;21037;-79
2022/04/09 11:20:24;;;;;;;15.03;1.52;;;8.80;99.90;;;;;;1931916;73;21067;-75
2022/04/09 11:22:52;;;;;;;5.87;1.60;;;9.10;99.90;;;;;;1959313;73;21134;-75
2022/04/09 11:25:24;;;;;;;7.78;1.45;;;9.40;99.90;;;;;;1959900;72;21096;-77
2022/04/09 11:27:54;;;;;;;3.05;1.35;;;9.60;99.90;;;;;;1960040;73;21047;-82
2022/04/09 11:30:22;;;;;;;5.17;1.70;;;9.90;99.90;;;;;;1955144;73;21577;-81
2022/04/09 11:32:49;;;;;;;6.28;1.60;;;10.00;99.90;;;;;;1948504;72;21033;-82
2022/04/09 11:35:24;;;;;;;8.40;1.45;;;9.90;99.90;;;;;;1954179;73;21529;-82
2022/04/09 11:37:52;;;;;;;5.90;1.50;;;9.60;99.90;;;;;;1960284;72;21076;-81
2022/04/09 11:40:35;;;;;;;;;;;9.20;99.90;;;;;;1962655;73;21167;-85
2022/04/09 11:45:49;;;;;;;6.30;1.95;;;9.80;99.90;;;;;;1961293;73;21052;-77
2022/04/09 11:48:19;;;;;;;5.47;1.70;;;9.10;99.90;;;;;;1937485;73;21525;-79
2022/04/09 11:50:54;;;;;;;5.47;2.02;;;9.10;99.90;;;;;;1961641;73;21070;-84
2022/04/09 11:53:24;;;;;;;5.55;1.77;;;8.80;99.90;;;;;;1956882;72;21240;-83
2022/04/09 11:55:59;;;;;;;4.15;1.55;;;8.80;99.90;;;;;;1938842;73;21060;-83
2022/04/09 11:58:35;;;;;;;5.08;1.47;;;10.10;99.90;;;;;;1951523;72;21119;-77
2022/04/09 12:01:02;;;;;;;7.17;1.70;;;11.40;99.90;;;;;;1954688;73;21148;-83
2022/04/09 12:03:29;;;;;;;6.67;1.47;;;11.50;99.90;;;;;;1927696;73;21158;-88
2022/04/09 12:06:00;;;;;;;7.50;1.60;;;10.40;99.90;;;;;;1940176;73;21106;-84
2022/04/09 12:08:29;;;;;;;4.62;1.42;;;10.40;99.90;;;;;;1958786;72;21466;-79
2022/04/09 12:11:01;;;;;;;6.92;1.70;;;11.60;99.90;;;;;;1955763;73;21138;-85
2022/04/09 12:13:35;;;;;;;4.83;1.57;;;11.70;99.90;;;;;;1959069;73;21144;-81
2022/04/09 12:16:05;;;;;;;8.20;1.80;;;11.70;99.90;;;;;;1937987;73;21067;-85
2022/04/09 12:18:36;;;;;;;3.30;1.30;;;10.40;99.90;;;;;;1959638;73;21071;-88
2022/04/09 12:21:27;;;;;;;4.25;1.47;;;10.00;99.90;;;;;;1959513;71;21041;-85
2022/04/09 12:24:13;;;;;;;4.17;1.50;;;9.70;99.90;;;;;;1957883;73;21436;-84
2022/04/09 12:26:50;;;;;;;4.62;1.65;;;9.40;99.90;;;;;;1957396;73;21000;-82
2022/04/09 12:29:22;;;;;;;14.38;2.75;;;9.40;99.90;;;;;;1957635;72;21105;-84
2022/04/09 12:31:52;;;;;;;7.95;1.60;;;9.60;99.90;;;;;;1959986;73;21464;-85
2022/04/09 12:34:23;;;;;;;4.95;1.50;;;9.60;99.90;;;;;;1958009;73;21149;-84
2022/04/09 12:37:04;;;;;;;5.47;1.30;;;10.50;99.90;;;;;;1956411;72;21104;-84
2022/04/09 12:39:33;;;;;;;6.83;1.80;;;11.30;99.90;;;;;;1950138;73;21161;-82
2022/04/09 12:42:00;;;;;;;7.47;1.50;;;11.00;99.90;;;;;;1953730;72;21111;-78
2022/04/09 12:44:33;;;;;;;9.35;1.57;;;10.70;99.90;;;;;;1954681;72;21049;-79
2022/04/09 12:47:01;;;;;;;8.05;1.70;;;11.10;99.90;;;;;;1952322;73;21136;-79
2022/04/09 12:49:35;;;;;;;6.05;1.60;;;12.50;99.90;;;;;;1955665;73;21056;-79
2022/04/09 12:52:05;;;;;;;5.72;1.47;;;12.50;99.90;;;;;;1953932;72;21111;-80
2022/04/09 12:54:33;;;;;;;3.27;1.20;;;11.40;99.90;;;;;;1958226;71;21037;-81
2022/04/09 12:57:14;;;;;;;4.65;1.30;;;11.90;99.90;;;;;;1954788;73;21105;-82
2022/04/09 12:59:42;;;;;;;5.62;1.37;;;12.40;99.90;;;;;;1961455;72;21028;-81
2022/04/09 13:02:09;;;;;;;9.58;1.60;;;12.60;99.90;;;;;;1956433;73;21107;-79
2022/04/09 13:04:38;;;;;;;7.50;1.77;;;13.00;99.90;;;;;;1960854;72;21067;-81
2022/04/09 13:07:05;;;;;;;3.62;1.10;;;12.00;99.90;;;;;;1959273;73;21459;-82
2022/04/09 13:09:32;;;;;;;4.83;1.37;;;11.50;99.90;;;;;;1961026;73;21008;-81